Time;durP1;ratioP1;P1;durP2;ratioP2;P2;SDS_P1;SDS_P2;PMS_P1;PMS_P2;Temp;Humidity;BMP_temperature;BMP_pressure;BME280_temperature;BME280_humidity;BME280_pressure;Samples;Min_cycle;Max_cycle;Signal;HPM_P1;HPM_P2
2023/04/24 00:00:14;;;;;;;1.17;0.60;;;;;;;;;;5028462;28;20330;-70
2023/04/24 00:02:39;;;;;;;0.98;0.50;;;;;;;;;;5030085;28;20307;-69
2023/04/24 00:05:05;;;;;;;4.55;0.60;;;;;;;;;;5032776;28;20072;-70
2023/04/24 00:07:31;;;;;;;1.20;0.52;;;;;;;;;;5030398;28;20439;-70
2023/04/24 00:09:57;;;;;;;1.73;0.60;;;;;;;;;;5030210;28;20108;-69
2023/04/24 00:12:22;;;;;;;0.93;0.52;;;;;;;;;;5027591;28;20030;-70
2023/04/24 00:14:47;;;;;;;1.17;0.53;;;;;;;;;;5029352;28;20017;-71
2023/04/24 00:17:12;;;;;;;1.17;0.60;;;;;;;;;;5030046;28;20682;-69
2023/04/24 00:19:38;;;;;;;1.40;0.82;;;;;;;;;;5030360;28;20287;-69
2023/04/24 00:22:03;;;;;;;1.65;0.43;;;;;;;;;;5029988;28;20030;-70
2023/04/24 00:24:28;;;;;;;1.67;0.68;;;;;;;;;;5029493;28;20055;-69
2023/04/24 00:26:53;;;;;;;0.85;0.55;;;;;;;;;;5028481;28;20076;-69
2023/04/24 00:29:19;;;;;;;0.60;0.50;;;;;;;;;;5030584;28;20049;-69
2023/04/24 00:31:44;;;;;;;1.60;0.57;;;;;;;;;;5030361;28;20290;-70
2023/04/24 00:34:10;;;;;;;1.10;0.65;;;;;;;;;;5031519;28;20022;-69
2023/04/24 00:36:35;;;;;;;1.70;0.73;;;;;;;;;;5029776;28;20025;-70
2023/04/24 00:39:00;;;;;;;1.25;0.60;;;;;;;;;;5030986;28;20375;-69
2023/04/24 00:41:26;;;;;;;4.73;1.43;;;;;;;;;;5028768;28;20107;-69
2023/04/24 00:43:52;;;;;;;1.88;0.90;;;;;;;;;;5030907;28;20271;-69
2023/04/24 00:46:17;;;;;;;0.68;0.57;;;;;;;;;;5028825;28;20112;-69
2023/04/24 00:48:42;;;;;;;2.92;0.47;;;;;;;;;;5029745;28;20021;-70
2023/04/24 00:51:08;;;;;;;1.85;0.88;;;;;;;;;;5029110;28;20128;-70
2023/04/24 00:53:33;;;;;;;2.83;0.90;;;;;;;;;;5029747;28;20013;-69
2023/04/24 00:55:59;;;;;;;3.97;1.10;;;;;;;;;;5030550;28;20036;-70
2023/04/24 00:58:24;;;;;;;1.52;0.65;;;;;;;;;;5030347;28;20617;-70
2023/04/24 01:00:52;;;;;;;4.18;0.73;;;;;;;;;;5025050;28;20083;-69
2023/04/24 01:03:18;;;;;;;1.80;0.88;;;;;;;;;;5029899;28;20021;-69
2023/04/24 01:05:43;;;;;;;1.67;0.82;;;;;;;;;;5030208;28;20031;-71
2023/04/24 01:08:08;;;;;;;1.10;0.60;;;;;;;;;;5029743;28;20104;-70
2023/04/24 01:10:34;;;;;;;1.10;0.70;;;;;;;;;;5029260;28;20268;-70
2023/04/24 01:12:59;;;;;;;2.35;1.10;;;;;;;;;;5029238;28;20417;-69
2023/04/24 01:15:25;;;;;;;2.53;0.70;;;;;;;;;;5026543;28;20042;-69
2023/04/24 01:17:50;;;;;;;3.78;0.90;;;;;;;;;;5026391;28;20022;-70
2023/04/24 01:20:16;;;;;;;3.10;1.02;;;;;;;;;;5028900;28;20017;-70
2023/04/24 01:22:42;;;;;;;3.45;0.90;;;;;;;;;;5028362;28;20055;-70
2023/04/24 01:25:07;;;;;;;1.65;0.65;;;;;;;;;;5026912;28;20029;-71
2023/04/24 01:27:32;;;;;;;1.02;0.60;;;;;;;;;;5027321;28;20527;-70
2023/04/24 01:29:58;;;;;;;2.67;0.93;;;;;;;;;;5029584;28;20030;-70
2023/04/24 01:32:23;;;;;;;3.50;1.23;;;;;;;;;;5029586;28;20098;-70
2023/04/24 01:34:49;;;;;;;1.70;0.98;;;;;;;;;;5030138;28;20032;-69
2023/04/24 01:37:15;;;;;;;2.45;1.27;;;;;;;;;;5030162;28;20022;-70
2023/04/24 01:39:40;;;;;;;2.25;1.13;;;;;;;;;;5028569;28;20466;-70
2023/04/24 01:42:06;;;;;;;3.17;1.45;;;;;;;;;;5028766;28;20072;-69
2023/04/24 01:44:33;;;;;;;3.75;1.60;;;;;;;;;;5029365;28;20021;-69
2023/04/24 01:46:58;;;;;;;2.97;1.45;;;;;;;;;;5029614;28;20033;-70
2023/04/24 01:49:23;;;;;;;1.97;1.17;;;;;;;;;;5030337;28;20025;-70
2023/04/24 01:51:48;;;;;;;6.50;2.07;;;;;;;;;;5030015;28;20490;-70
2023/04/24 01:54:13;;;;;;;3.57;1.80;;;;;;;;;;5029501;28;20410;-71
2023/04/24 01:56:40;;;;;;;4.82;1.85;;;;;;;;;;5029918;28;20275;-69
2023/04/24 01:59:06;;;;;;;3.83;2.10;;;;;;;;;;5030060;28;20065;-69
2023/04/24 02:01:36;;;;;;;3.83;1.83;;;;;;;;;;5031046;28;20136;-70
2023/04/24 02:04:01;;;;;;;3.00;1.75;;;;;;;;;;5031681;28;20028;-70
2023/04/24 02:06:26;;;;;;;3.57;1.93;;;;;;;;;;5031920;28;20029;-69
2023/04/24 02:08:52;;;;;;;4.57;2.30;;;;;;;;;;5031749;28;20299;-70
2023/04/24 02:11:17;;;;;;;3.03;2.22;;;;;;;;;;5034160;28;20268;-71
2023/04/24 02:13:42;;;;;;;3.87;1.97;;;;;;;;;;5032296;28;20445;-70
2023/04/24 02:16:07;;;;;;;6.23;2.60;;;;;;;;;;5032315;28;20264;-70
2023/04/24 02:18:32;;;;;;;8.63;3.57;;;;;;;;;;5034033;28;20683;-69
2023/04/24 02:20:57;;;;;;;5.50;2.73;;;;;;;;;;5035323;28;20355;-70
2023/04/24 02:23:23;;;;;;;7.03;2.93;;;;;;;;;;5031290;28;21983;-72
2023/04/24 02:25:48;;;;;;;6.10;2.40;;;;;;;;;;5035553;28;20291;-70
2023/04/24 02:28:13;;;;;;;8.98;3.60;;;;;;;;;;5030795;28;20298;-70
2023/04/24 02:30:38;;;;;;;5.28;2.60;;;;;;;;;;5031130;28;20090;-72
2023/04/24 02:33:04;;;;;;;1.90;1.13;;;;;;;;;;5031550;28;20030;-70
2023/04/24 02:35:29;;;;;;;9.48;4.32;;;;;;;;;;5035444;28;20351;-69
2023/04/24 02:37:55;;;;;;;4.20;1.98;;;;;;;;;;5032217;28;20033;-69
2023/04/24 02:40:20;;;;;;;6.10;3.50;;;;;;;;;;5032543;28;20024;-71
2023/04/24 02:42:45;;;;;;;8.67;5.27;;;;;;;;;;5031378;28;20564;-71
2023/04/24 02:45:10;;;;;;;9.27;3.75;;;;;;;;;;5032319;28;20329;-70
2023/04/24 02:47:35;;;;;;;8.33;3.83;;;;;;;;;;5034208;28;20029;-69
2023/04/24 02:50:01;;;;;;;8.33;5.03;;;;;;;;;;5031882;28;20272;-70
2023/04/24 02:52:26;;;;;;;7.68;4.50;;;;;;;;;;5032720;28;20310;-70
2023/04/24 02:54:53;;;;;;;9.33;4.40;;;;;;;;;;5032745;28;20026;-70
2023/04/24 02:57:18;;;;;;;7.13;3.70;;;;;;;;;;5032865;28;20275;-70
2023/04/24 02:59:43;;;;;;;9.80;4.73;;;;;;;;;;5033741;28;20567;-69
2023/04/24 03:02:09;;;;;;;4.00;2.27;;;;;;;;;;5030014;28;20268;-71
2023/04/24 03:04:34;;;;;;;8.30;4.40;;;;;;;;;;5032781;28;20760;-69
2023/04/24 03:06:59;;;;;;;8.70;3.97;;;;;;;;;;5027369;28;20363;-70
2023/04/24 03:09:24;;;;;;;9.95;4.65;;;;;;;;;;5023162;28;20745;-70
2023/04/24 03:11:50;;;;;;;11.63;4.43;;;;;;;;;;5023698;28;20352;-69
2023/04/24 03:14:15;;;;;;;12.15;5.20;;;;;;;;;;5030500;28;20013;-72
2023/04/24 03:16:40;;;;;;;10.77;4.63;;;;;;;;;;5033685;28;20356;-69
2023/04/24 03:19:06;;;;;;;9.77;5.07;;;;;;;;;;5031188;28;20108;-70
2023/04/24 03:21:31;;;;;;;9.55;4.50;;;;;;;;;;5032785;28;20276;-70
2023/04/24 03:23:56;;;;;;;14.45;5.30;;;;;;;;;;5031809;28;20017;-70
2023/04/24 03:26:21;;;;;;;10.10;5.18;;;;;;;;;;5031283;28;20022;-70
2023/04/24 03:28:46;;;;;;;7.10;3.63;;;;;;;;;;5031853;28;20029;-70
2023/04/24 03:31:11;;;;;;;8.30;4.63;;;;;;;;;;5027111;28;20689;-71
2023/04/24 03:33:37;;;;;;;11.23;4.97;;;;;;;;;;5030660;28;20331;-70
2023/04/24 03:36:02;;;;;;;4.50;1.95;;;;;;;;;;5030842;28;20342;-71
2023/04/24 03:38:27;;;;;;;14.15;5.68;;;;;;;;;;5030767;28;20048;-70
2023/04/24 03:40:52;;;;;;;17.73;4.73;;;;;;;;;;5029034;28;20025;-71
2023/04/24 03:43:17;;;;;;;10.13;5.93;;;;;;;;;;5030814;28;20618;-70
2023/04/24 03:45:43;;;;;;;7.77;4.53;;;;;;;;;;5030981;28;20303;-70
2023/04/24 03:48:08;;;;;;;11.98;6.00;;;;;;;;;;5029534;28;20291;-70
2023/04/24 03:50:33;;;;;;;12.95;6.38;;;;;;;;;;5030492;28;20025;-70
2023/04/24 03:52:58;;;;;;;10.97;5.43;;;;;;;;;;5029278;28;20600;-70
2023/04/24 03:55:23;;;;;;;17.77;7.00;;;;;;;;;;5031275;28;20288;-70
2023/04/24 03:57:48;;;;;;;15.13;5.47;;;;;;;;;;5025779;28;20668;-71
2023/04/24 04:00:14;;;;;;;12.77;6.40;;;;;;;;;;5029442;28;20475;-70
2023/04/24 04:02:39;;;;;;;11.23;6.20;;;;;;;;;;5030936;28;20279;-70
2023/04/24 04:05:04;;;;;;;10.83;5.80;;;;;;;;;;5027238;28;20071;-70
2023/04/24 04:07:30;;;;;;;7.60;3.63;;;;;;;;;;5027999;28;20284;-70
2023/04/24 04:09:55;;;;;;;12.87;5.80;;;;;;;;;;5029105;28;20025;-71
2023/04/24 04:12:20;;;;;;;15.00;5.43;;;;;;;;;;5029102;28;20276;-71
2023/04/24 04:14:45;;;;;;;12.33;6.17;;;;;;;;;;5029181;28;20334;-71
2023/04/24 04:17:10;;;;;;;10.37;5.17;;;;;;;;;;5030393;28;20286;-70
2023/04/24 04:19:36;;;;;;;9.07;4.75;;;;;;;;;;5030547;28;20268;-70
2023/04/24 04:22:01;;;;;;;7.32;4.88;;;;;;;;;;5031201;28;20481;-70
2023/04/24 04:24:26;;;;;;;18.40;4.40;;;;;;;;;;5026828;28;20398;-70
2023/04/24 04:26:52;;;;;;;11.10;5.50;;;;;;;;;;5029843;28;20342;-70
2023/04/24 04:29:18;;;;;;;7.22;4.25;;;;;;;;;;5028639;28;20260;-70
2023/04/24 04:31:43;;;;;;;7.85;5.00;;;;;;;;;;5029038;28;20083;-70
2023/04/24 04:34:08;;;;;;;11.93;5.45;;;;;;;;;;5031831;28;20430;-70
2023/04/24 04:36:36;;;;;;;8.18;4.57;;;;;;;;;;5031642;28;20024;-72
2023/04/24 04:39:02;;;;;;;9.90;5.03;;;;;;;;;;5028467;28;20013;-70
2023/04/24 04:41:27;;;;;;;8.50;3.42;;;;;;;;;;5029747;28;20367;-70
2023/04/24 04:43:52;;;;;;;6.40;4.05;;;;;;;;;;5029612;28;20028;-71
2023/04/24 04:46:18;;;;;;;11.13;5.40;;;;;;;;;;5025974;28;20517;-70
2023/04/24 04:48:43;;;;;;;8.00;3.95;;;;;;;;;;5027560;28;20375;-70
2023/04/24 04:51:08;;;;;;;10.65;5.00;;;;;;;;;;5026843;28;20026;-71
2023/04/24 04:53:33;;;;;;;10.00;3.93;;;;;;;;;;5027719;28;20025;-70
2023/04/24 04:55:59;;;;;;;10.03;4.27;;;;;;;;;;5028546;28;20285;-70
2023/04/24 04:58:25;;;;;;;7.25;2.05;;;;;;;;;;5029745;28;20303;-70
2023/04/24 05:00:50;;;;;;;7.28;2.97;;;;;;;;;;5027203;28;20025;-71
2023/04/24 05:03:15;;;;;;;9.53;4.73;;;;;;;;;;5030703;28;20025;-70
2023/04/24 05:05:40;;;;;;;11.32;4.70;;;;;;;;;;5026402;28;20702;-70
2023/04/24 05:08:07;;;;;;;10.65;4.70;;;;;;;;;;5026121;28;20037;-71
2023/04/24 05:10:32;;;;;;;8.35;4.93;;;;;;;;;;5027890;28;20013;-70
2023/04/24 05:12:57;;;;;;;5.57;2.50;;;;;;;;;;5026347;28;20040;-70
2023/04/24 05:15:22;;;;;;;10.05;4.70;;;;;;;;;;5027716;28;20614;-70
2023/04/24 05:17:47;;;;;;;12.50;4.47;;;;;;;;;;5027087;28;20052;-71
2023/04/24 05:20:13;;;;;;;10.50;4.50;;;;;;;;;;5026530;28;20641;-70
2023/04/24 05:22:38;;;;;;;7.38;3.65;;;;;;;;;;5025901;28;20055;-70
2023/04/24 05:25:03;;;;;;;7.43;3.27;;;;;;;;;;5025450;28;20039;-70
2023/04/24 05:27:28;;;;;;;5.40;3.55;;;;;;;;;;5026406;28;20315;-70
2023/04/24 05:29:53;;;;;;;9.33;4.17;;;;;;;;;;5024327;28;20026;-70
2023/04/24 05:32:19;;;;;;;13.73;4.37;;;;;;;;;;5025370;28;20349;-70
2023/04/24 05:34:44;;;;;;;9.55;5.05;;;;;;;;;;5023003;28;20280;-73
2023/04/24 05:37:10;;;;;;;12.98;5.15;;;;;;;;;;5029818;28;20029;-71
2023/04/24 05:39:35;;;;;;;10.88;4.75;;;;;;;;;;5025062;28;20040;-70
2023/04/24 05:42:01;;;;;;;7.85;4.00;;;;;;;;;;5027654;28;20505;-71
2023/04/24 05:44:26;;;;;;;11.45;4.32;;;;;;;;;;5025813;28;20028;-71
2023/04/24 05:46:51;;;;;;;7.63;4.45;;;;;;;;;;5024009;28;20071;-70
2023/04/24 05:49:16;;;;;;;6.45;2.35;;;;;;;;;;5027435;28;20493;-71
2023/04/24 05:51:42;;;;;;;11.57;6.60;;;;;;;;;;5028884;28;20483;-69
2023/04/24 05:54:07;;;;;;;16.33;6.13;;;;;;;;;;5025612;28;20355;-70
2023/04/24 05:56:32;;;;;;;10.27;5.22;;;;;;;;;;5027419;28;20621;-70
2023/04/24 05:58:57;;;;;;;11.55;5.80;;;;;;;;;;5026266;28;20025;-70
2023/04/24 06:01:23;;;;;;;9.45;5.43;;;;;;;;;;5026981;28;20040;-70
2023/04/24 06:03:48;;;;;;;12.02;5.43;;;;;;;;;;5028820;28;20356;-71
2023/04/24 06:06:13;;;;;;;10.20;5.20;;;;;;;;;;5027042;28;20064;-71
2023/04/24 06:08:38;;;;;;;11.02;5.47;;;;;;;;;;5027383;28;20315;-70
2023/04/24 06:11:04;;;;;;;14.03;5.73;;;;;;;;;;5028659;28;20049;-70
2023/04/24 06:13:29;;;;;;;15.80;5.85;;;;;;;;;;5027830;28;20286;-70
2023/04/24 06:15:54;;;;;;;10.47;3.30;;;;;;;;;;5026411;28;20032;-73
2023/04/24 06:18:19;;;;;;;7.72;3.60;;;;;;;;;;5029937;28;20355;-70
2023/04/24 06:20:45;;;;;;;11.35;5.07;;;;;;;;;;5029568;28;20044;-70
2023/04/24 06:23:10;;;;;;;9.82;4.82;;;;;;;;;;5024993;28;20029;-71
2023/04/24 06:25:36;;;;;;;6.80;3.70;;;;;;;;;;5026942;28;20029;-71
2023/04/24 06:28:02;;;;;;;5.18;2.40;;;;;;;;;;5026614;28;20056;-70
2023/04/24 06:30:28;;;;;;;6.20;3.58;;;;;;;;;;5030432;28;20056;-71
2023/04/24 06:32:53;;;;;;;5.43;3.28;;;;;;;;;;5024487;28;20040;-70
2023/04/24 06:35:18;;;;;;;3.70;2.17;;;;;;;;;;5025585;28;20087;-72
2023/04/24 06:37:43;;;;;;;3.30;1.87;;;;;;;;;;5023562;28;20286;-69
2023/04/24 06:40:09;;;;;;;7.88;2.55;;;;;;;;;;5022841;28;20273;-70
2023/04/24 06:42:35;;;;;;;2.92;1.58;;;;;;;;;;5021424;28;20116;-71
2023/04/24 06:45:00;;;;;;;3.65;1.25;;;;;;;;;;5026998;28;20026;-71
2023/04/24 06:47:25;;;;;;;3.50;2.47;;;;;;;;;;5026735;28;20089;-71
2023/04/24 06:49:52;;;;;;;3.97;2.27;;;;;;;;;;5030540;28;20057;-71
2023/04/24 06:52:17;;;;;;;3.58;1.58;;;;;;;;;;5031143;28;20276;-71
2023/04/24 06:54:42;;;;;;;3.28;1.60;;;;;;;;;;5030258;28;20526;-71
2023/04/24 06:57:08;;;;;;;4.27;1.33;;;;;;;;;;5033433;28;20418;-71
2023/04/24 06:59:33;;;;;;;2.63;1.40;;;;;;;;;;5031989;28;20268;-71
2023/04/24 07:01:58;;;;;;;2.60;1.23;;;;;;;;;;5032276;28;20521;-71
2023/04/24 07:04:24;;;;;;;2.00;1.00;;;;;;;;;;5029450;28;20017;-71
2023/04/24 07:06:51;;;;;;;1.88;1.10;;;;;;;;;;5026609;28;20013;-71
2023/04/24 07:09:18;;;;;;;2.60;1.42;;;;;;;;;;5028550;28;20475;-70
2023/04/24 07:11:44;;;;;;;4.03;1.58;;;;;;;;;;5027164;28;20072;-70
2023/04/24 07:14:09;;;;;;;2.90;1.48;;;;;;;;;;5035090;28;20029;-70
2023/04/24 07:16:35;;;;;;;1.30;0.80;;;;;;;;;;5030613;28;20029;-70
2023/04/24 07:19:00;;;;;;;1.92;0.95;;;;;;;;;;5032330;28;20033;-70
2023/04/24 07:21:25;;;;;;;2.37;1.40;;;;;;;;;;5031541;28;20491;-70
2023/04/24 07:23:50;;;;;;;4.18;1.60;;;;;;;;;;5031337;28;20426;-71
2023/04/24 07:26:16;;;;;;;4.70;1.58;;;;;;;;;;5032032;28;20105;-71
2023/04/24 07:28:41;;;;;;;4.55;1.70;;;;;;;;;;5031147;28;20406;-70
2023/04/24 07:31:06;;;;;;;3.77;1.80;;;;;;;;;;5030692;28;20033;-70
2023/04/24 07:33:32;;;;;;;2.80;1.13;;;;;;;;;;5031133;28;20279;-71
2023/04/24 07:35:57;;;;;;;4.53;2.30;;;;;;;;;;5031943;28;20044;-72
2023/04/24 07:38:22;;;;;;;5.35;2.00;;;;;;;;;;5028776;28;20112;-71
2023/04/24 07:40:48;;;;;;;8.50;1.35;;;;;;;;;;5029309;28;20048;-70
2023/04/24 07:43:13;;;;;;;4.00;1.45;;;;;;;;;;5028185;28;20466;-70
2023/04/24 07:45:39;;;;;;;5.30;1.73;;;;;;;;;;5032972;28;20037;-71
2023/04/24 07:48:04;;;;;;;3.40;1.48;;;;;;;;;;5028468;28;20688;-71
2023/04/24 07:50:29;;;;;;;0.85;0.57;;;;;;;;;;5030022;28;20033;-71
2023/04/24 07:52:55;;;;;;;8.70;0.82;;;;;;;;;;5029053;28;20097;-71
2023/04/24 07:55:20;;;;;;;1.52;0.85;;;;;;;;;;5029958;28;20022;-71
2023/04/24 07:57:45;;;;;;;1.23;1.13;;;;;;;;;;5029692;28;20061;-71
2023/04/24 08:00:10;;;;;;;1.02;0.90;;;;;;;;;;5028204;28;20648;-71
2023/04/24 08:02:36;;;;;;;1.40;0.68;;;;;;;;;;5028297;28;20103;-71
2023/04/24 08:05:03;;;;;;;3.33;1.25;;;;;;;;;;5030285;28;20028;-71
2023/04/24 08:07:28;;;;;;;2.03;0.73;;;;;;;;;;5028905;28;20032;-71
2023/04/24 08:09:53;;;;;;;1.42;0.90;;;;;;;;;;5028343;28;20033;-71
2023/04/24 08:12:18;;;;;;;1.67;0.73;;;;;;;;;;5030918;28;20018;-71
2023/04/24 08:14:44;;;;;;;2.25;1.20;;;;;;;;;;5032140;28;20017;-71
2023/04/24 08:17:09;;;;;;;1.30;0.50;;;;;;;;;;5028228;28;20390;-71
2023/04/24 08:19:34;;;;;;;1.60;1.10;;;;;;;;;;5029379;28;20034;-71
2023/04/24 08:21:59;;;;;;;2.35;1.17;;;;;;;;;;5032689;28;20363;-71
2023/04/24 08:24:24;;;;;;;2.70;1.35;;;;;;;;;;5030081;28;20393;-71
2023/04/24 08:26:51;;;;;;;6.30;1.60;;;;;;;;;;5029280;28;20025;-71
2023/04/24 08:29:16;;;;;;;1.27;1.02;;;;;;;;;;5029938;28;20287;-71
2023/04/24 08:31:41;;;;;;;5.23;1.00;;;;;;;;;;5028582;28;20406;-71
2023/04/24 08:34:06;;;;;;;6.70;1.40;;;;;;;;;;5029340;28;20355;-71
2023/04/24 08:36:31;;;;;;;1.57;1.13;;;;;;;;;;5030306;28;20287;-71
2023/04/24 08:38:57;;;;;;;2.78;1.15;;;;;;;;;;5033954;28;20406;-71
2023/04/24 08:41:24;;;;;;;6.82;1.35;;;;;;;;;;5029140;28;20078;-71
2023/04/24 08:43:50;;;;;;;2.28;1.40;;;;;;;;;;5032324;28;20036;-71
2023/04/24 08:46:16;;;;;;;2.50;1.60;;;;;;;;;;5029572;28;20021;-71
2023/04/24 08:48:41;;;;;;;2.30;0.90;;;;;;;;;;5027614;28;20025;-71
2023/04/24 08:51:07;;;;;;;1.75;1.05;;;;;;;;;;5029334;28;20049;-71
2023/04/24 08:53:32;;;;;;;2.58;1.40;;;;;;;;;;5032868;28;20029;-71
2023/04/24 08:55:58;;;;;;;5.28;1.45;;;;;;;;;;5032287;28;20028;-71
2023/04/24 08:58:26;;;;;;;3.50;1.15;;;;;;;;;;5031254;28;20034;-71
2023/04/24 09:00:54;;;;;;;4.28;1.88;;;;;;;;;;5029820;28;20382;-71
2023/04/24 09:03:20;;;;;;;5.32;3.08;;;;;;;;;;5030600;28;20036;-71
2023/04/24 09:05:46;;;;;;;10.98;4.00;;;;;;;;;;5030644;28;20021;-71
2023/04/24 09:08:13;;;;;;;8.75;5.18;;;;;;;;;;5031030;28;20029;-71
2023/04/24 09:10:38;;;;;;;10.05;4.68;;;;;;;;;;5029170;28;20021;-71
2023/04/24 09:13:04;;;;;;;11.68;4.28;;;;;;;;;;5030471;28;20033;-71
2023/04/24 09:15:29;;;;;;;12.15;4.60;;;;;;;;;;5031548;28;20112;-70
2023/04/24 09:17:55;;;;;;;9.10;5.10;;;;;;;;;;5033886;28;20399;-71
2023/04/24 09:20:20;;;;;;;11.18;4.43;;;;;;;;;;5033162;28;20037;-71
2023/04/24 09:22:45;;;;;;;13.38;5.25;;;;;;;;;;5026820;28;20540;-71
2023/04/24 09:25:12;;;;;;;7.65;4.32;;;;;;;;;;5029807;28;20109;-71
2023/04/24 09:27:40;;;;;;;11.15;2.97;;;;;;;;;;5029581;28;20029;-70
2023/04/24 09:30:08;;;;;;;12.38;5.05;;;;;;;;;;5027584;28;20222;-70
2023/04/24 09:32:33;;;;;;;12.05;5.25;;;;;;;;;;5029333;28;20104;-71
2023/04/24 09:35:13;;;;;;;9.80;4.47;;;;;;;;;;5030011;28;20459;-70
2023/04/24 09:37:41;;;;;;;10.25;4.68;;;;;;;;;;5028141;28;20437;-71
2023/04/24 09:40:16;;;;;;;12.88;4.22;;;;;;;;;;5027371;28;20113;-70
2023/04/24 09:42:45;;;;;;;8.70;4.25;;;;;;;;;;5024217;28;20029;-70
2023/04/24 09:45:11;;;;;;;8.50;4.32;;;;;;;;;;5029945;28;20084;-71
2023/04/24 09:47:37;;;;;;;12.48;4.78;;;;;;;;;;5025145;28;20442;-70
2023/04/24 09:50:15;;;;;;;12.32;5.60;;;;;;;;;;5027015;28;20029;-71
2023/04/24 09:52:44;;;;;;;13.35;4.20;;;;;;;;;;5031892;28;20463;-70
2023/04/24 09:55:28;;;;;;;12.50;5.65;;;;;;;;;;5029088;28;20108;-70
2023/04/24 09:57:57;;;;;;;12.93;4.82;;;;;;;;;;5027111;28;20409;-71
2023/04/24 10:00:29;;;;;;;9.47;4.37;;;;;;;;;;5025591;28;20025;-71
2023/04/24 10:02:58;;;;;;;11.95;4.40;;;;;;;;;;5021249;28;20268;-70
2023/04/24 10:05:28;;;;;;;14.82;4.43;;;;;;;;;;5028442;28;20033;-71
2023/04/24 10:07:56;;;;;;;11.95;4.88;;;;;;;;;;5031508;28;20026;-71
2023/04/24 10:10:21;;;;;;;15.85;6.22;;;;;;;;;;5028475;28;20032;-71
2023/04/24 10:12:46;;;;;;;18.42;6.82;;;;;;;;;;5029263;28;20025;-71
2023/04/24 10:15:12;;;;;;;17.67;7.97;;;;;;;;;;5028890;28;20374;-71
2023/04/24 10:17:38;;;;;;;17.75;7.45;;;;;;;;;;5027708;28;20048;-71
2023/04/24 10:20:06;;;;;;;17.75;7.25;;;;;;;;;;5028271;28;20053;-71
2023/04/24 10:22:31;;;;;;;20.02;8.73;;;;;;;;;;5029093;28;20108;-70
2023/04/24 10:24:58;;;;;;;16.00;7.60;;;;;;;;;;5034184;28;20113;-70
2023/04/24 10:27:24;;;;;;;24.25;8.27;;;;;;;;;;5029447;28;20021;-70
2023/04/24 10:29:50;;;;;;;16.15;7.95;;;;;;;;;;5030045;28;20018;-70
2023/04/24 10:32:16;;;;;;;23.58;8.55;;;;;;;;;;5030149;28;20437;-70
2023/04/24 10:34:41;;;;;;;18.37;5.97;;;;;;;;;;5033312;28;20048;-71
2023/04/24 10:37:06;;;;;;;20.13;7.10;;;;;;;;;;5034050;28;20276;-71
2023/04/24 10:39:33;;;;;;;18.92;5.70;;;;;;;;;;5034597;28;20662;-71
2023/04/24 10:41:58;;;;;;;14.07;5.18;;;;;;;;;;5034609;28;20025;-71
2023/04/24 10:44:23;;;;;;;20.70;5.73;;;;;;;;;;5033310;28;20394;-71
2023/04/24 10:46:52;;;;;;;16.92;5.57;;;;;;;;;;5029299;28;20284;-72
2023/04/24 10:49:27;;;;;;;11.73;5.05;;;;;;;;;;5031772;28;20033;-71
2023/04/24 10:51:53;;;;;;;19.00;6.30;;;;;;;;;;5031517;28;20095;-70
2023/04/24 10:54:28;;;;;;;12.52;5.35;;;;;;;;;;5035281;28;20112;-70
2023/04/24 10:57:14;;;;;;;12.63;4.82;;;;;;;;;;5036252;28;20037;-71
2023/04/24 10:59:40;;;;;;;15.93;4.43;;;;;;;;;;5030985;28;20045;-71
2023/04/24 11:02:08;;;;;;;12.50;3.92;;;;;;;;;;5031527;28;20025;-70
2023/04/24 11:04:34;;;;;;;6.30;2.72;;;;;;;;;;5036224;28;20025;-72
2023/04/24 11:07:00;;;;;;;8.95;3.38;;;;;;;;;;5032508;28;20024;-70
2023/04/24 11:09:29;;;;;;;11.23;3.95;;;;;;;;;;5035858;28;20021;-70
2023/04/24 11:12:08;;;;;;;8.82;3.85;;;;;;;;;;5032275;28;20026;-70
2023/04/24 11:14:52;;;;;;;9.05;3.08;;;;;;;;;;5034182;28;20108;-71
2023/04/24 11:17:37;;;;;;;15.93;3.58;;;;;;;;;;5028472;28;20029;-70
2023/04/24 11:20:06;;;;;;;14.43;3.05;;;;;;;;;;5032400;28;20029;-70
2023/04/24 11:22:33;;;;;;;9.13;2.75;;;;;;;;;;5033434;28;20104;-71
2023/04/24 11:24:59;;;;;;;13.23;4.78;;;;;;;;;;5034240;28;20100;-71
2023/04/24 11:27:29;;;;;;;11.40;3.00;;;;;;;;;;5033246;28;20013;-71
2023/04/24 11:29:55;;;;;;;15.07;3.75;;;;;;;;;;5028914;28;20029;-70
2023/04/24 11:32:24;;;;;;;11.20;2.97;;;;;;;;;;5030648;28;20449;-71
2023/04/24 11:34:51;;;;;;;12.85;3.17;;;;;;;;;;5032901;28;20518;-70
2023/04/24 11:37:16;;;;;;;8.73;2.38;;;;;;;;;;5030954;28;20033;-71
2023/04/24 11:39:42;;;;;;;7.10;2.90;;;;;;;;;;5030230;28;20025;-70
2023/04/24 11:42:08;;;;;;;12.45;2.75;;;;;;;;;;5030354;28;20017;-70
2023/04/24 11:44:34;;;;;;;10.40;3.35;;;;;;;;;;5032116;28;20021;-70
2023/04/24 11:46:59;;;;;;;10.57;4.75;;;;;;;;;;5032117;28;20029;-70
2023/04/24 11:49:25;;;;;;;11.73;4.07;;;;;;;;;;5031636;28;20475;-70
2023/04/24 11:51:50;;;;;;;13.27;3.60;;;;;;;;;;5031375;28;20276;-70
2023/04/24 11:54:15;;;;;;;12.68;3.67;;;;;;;;;;5032773;28;20029;-71
2023/04/24 11:56:44;;;;;;;15.57;3.73;;;;;;;;;;5030896;28;20114;-70
2023/04/24 11:59:10;;;;;;;12.35;3.80;;;;;;;;;;5032109;28;20322;-70
2023/04/24 12:01:45;;;;;;;12.95;4.65;;;;;;;;;;5030352;28;20026;-70
2023/04/24 12:04:10;;;;;;;11.10;3.97;;;;;;;;;;5032374;28;20392;-70
2023/04/24 12:06:35;;;;;;;12.45;3.63;;;;;;;;;;5032254;28;20018;-71
2023/04/24 12:09:01;;;;;;;15.98;3.78;;;;;;;;;;5031755;28;20092;-69
2023/04/24 12:11:26;;;;;;;10.40;4.15;;;;;;;;;;5034462;28;20082;-70
2023/04/24 12:13:52;;;;;;;7.47;3.20;;;;;;;;;;5030398;28;20468;-69
2023/04/24 12:16:17;;;;;;;9.02;2.88;;;;;;;;;;5029402;28;20017;-69
2023/04/24 12:18:43;;;;;;;11.93;3.67;;;;;;;;;;5028951;28;20029;-69
2023/04/24 12:21:19;;;;;;;11.52;3.65;;;;;;;;;;5029486;28;20040;-69
2023/04/24 12:23:47;;;;;;;12.20;3.42;;;;;;;;;;5029597;28;20486;-69
2023/04/24 12:26:19;;;;;;;8.13;3.60;;;;;;;;;;5025258;28;20048;-69
2023/04/24 12:28:46;;;;;;;12.05;3.58;;;;;;;;;;5027068;28;20025;-70
2023/04/24 12:31:11;;;;;;;11.90;3.63;;;;;;;;;;5025982;28;20071;-69
2023/04/24 12:33:37;;;;;;;10.60;2.92;;;;;;;;;;5028035;28;20639;-69
2023/04/24 12:36:02;;;;;;;14.82;3.15;;;;;;;;;;5027959;28;20024;-69
2023/04/24 12:38:29;;;;;;;15.18;3.15;;;;;;;;;;5028940;28;20099;-69
2023/04/24 12:41:05;;;;;;;12.52;3.40;;;;;;;;;;5026040;28;20030;-69
2023/04/24 12:43:31;;;;;;;15.02;2.80;;;;;;;;;;5032268;28;20644;-69
2023/04/24 12:45:56;;;;;;;16.10;3.47;;;;;;;;;;5029865;28;20041;-69
2023/04/24 12:48:22;;;;;;;9.18;3.50;;;;;;;;;;5028805;28;20032;-69
2023/04/24 12:50:47;;;;;;;14.75;2.63;;;;;;;;;;5030715;28;20148;-69
2023/04/24 12:53:12;;;;;;;10.93;2.70;;;;;;;;;;5028822;28;20030;-69
2023/04/24 12:55:37;;;;;;;12.25;3.05;;;;;;;;;;5033458;28;20463;-69
2023/04/24 12:58:03;;;;;;;12.43;3.63;;;;;;;;;;5030606;28;20447;-69
2023/04/24 13:00:28;;;;;;;12.70;2.90;;;;;;;;;;5032751;28;20268;-69
2023/04/24 13:02:53;;;;;;;10.33;3.43;;;;;;;;;;5030525;28;20018;-69
2023/04/24 13:05:18;;;;;;;9.00;2.65;;;;;;;;;;5028087;28;20307;-69
2023/04/24 13:07:43;;;;;;;5.90;2.20;;;;;;;;;;5034379;28;20021;-69
2023/04/24 13:10:09;;;;;;;10.73;3.63;;;;;;;;;;5029171;28;20034;-69
2023/04/24 13:12:34;;;;;;;9.95;2.80;;;;;;;;;;5034940;28;20263;-70
2023/04/24 13:14:59;;;;;;;12.25;2.70;;;;;;;;;;5030236;28;20045;-70
2023/04/24 13:17:24;;;;;;;11.02;2.83;;;;;;;;;;5030245;28;20104;-70
2023/04/24 13:19:51;;;;;;;8.80;2.80;;;;;;;;;;5030407;28;20104;-70
2023/04/24 13:22:18;;;;;;;12.38;3.40;;;;;;;;;;5030646;28;20267;-70
2023/04/24 13:24:43;;;;;;;10.82;3.42;;;;;;;;;;5025716;28;20075;-70
2023/04/24 13:27:09;;;;;;;10.40;3.40;;;;;;;;;;5026183;28;20033;-70
2023/04/24 13:29:34;;;;;;;5.60;2.40;;;;;;;;;;5029956;28;20260;-70
2023/04/24 13:32:00;;;;;;;8.05;2.95;;;;;;;;;;5032318;28;20014;-70
2023/04/24 13:34:26;;;;;;;10.93;2.50;;;;;;;;;;5029568;28;20025;-70
2023/04/24 13:36:52;;;;;;;14.18;2.20;;;;;;;;;;5032330;28;20537;-70
2023/04/24 13:39:17;;;;;;;10.05;2.92;;;;;;;;;;5030133;28;20509;-71
2023/04/24 13:41:42;;;;;;;9.45;2.72;;;;;;;;;;5029026;28;20049;-70
2023/04/24 13:44:08;;;;;;;9.82;2.75;;;;;;;;;;5030724;28;20113;-70
2023/04/24 13:46:33;;;;;;;11.10;2.85;;;;;;;;;;5032146;28;20379;-71
2023/04/24 13:48:58;;;;;;;8.35;2.90;;;;;;;;;;5028468;28;20078;-70
2023/04/24 13:51:26;;;;;;;10.35;2.90;;;;;;;;;;5029548;28;20391;-70
2023/04/24 13:53:52;;;;;;;9.57;3.10;;;;;;;;;;5029635;28;20017;-70
2023/04/24 13:56:17;;;;;;;8.02;2.70;;;;;;;;;;5029655;28;20494;-71
2023/04/24 13:58:42;;;;;;;14.73;3.13;;;;;;;;;;5026084;28;20013;-70
2023/04/24 14:01:08;;;;;;;10.07;2.75;;;;;;;;;;5030458;28;20268;-71
2023/04/24 14:03:33;;;;;;;11.70;3.07;;;;;;;;;;5030820;28;20030;-71
2023/04/24 14:05:58;;;;;;;7.35;2.63;;;;;;;;;;5029674;28;20318;-70
2023/04/24 14:08:23;;;;;;;9.80;3.05;;;;;;;;;;5026736;28;20107;-71
2023/04/24 14:10:50;;;;;;;7.90;2.47;;;;;;;;;;5029329;28;20013;-71
2023/04/24 14:13:15;;;;;;;5.93;2.88;;;;;;;;;;5025541;28;20029;-71
2023/04/24 14:15:40;;;;;;;8.23;2.65;;;;;;;;;;5029298;28;20031;-71
2023/04/24 14:18:05;;;;;;;9.27;3.03;;;;;;;;;;5025936;28;20030;-71
2023/04/24 14:20:31;;;;;;;8.73;2.53;;;;;;;;;;5026873;28;20637;-71
2023/04/24 14:22:58;;;;;;;8.95;2.78;;;;;;;;;;5026647;28;20275;-71
2023/04/24 14:25:24;;;;;;;11.50;3.08;;;;;;;;;;5029561;28;20378;-71
2023/04/24 14:27:49;;;;;;;8.43;2.78;;;;;;;;;;5026470;28;20025;-71
2023/04/24 14:30:15;;;;;;;10.93;3.38;;;;;;;;;;5024123;28;20368;-71